Time;durP1;ratioP1;P1;durP2;ratioP2;P2;SDS_P1;SDS_P2;PMS_P1;PMS_P2;Temp;Humidity;BMP_temperature;BMP_pressure;BME280_temperature;BME280_humidity;BME280_pressure;Samples;Min_cycle;Max_cycle;Signal;HPM_P1;HPM_P2
2022/08/27 00:00:05;;;;;;;;;;;14.20;62.00;;;;;;5087014;28;20526;-76
2022/08/27 00:02:34;;;;;;;;;;;14.10;62.10;;;;;;5088112;28;20421;-76
2022/08/27 00:05:00;;;;;;;;;;;14.10;62.10;;;;;;5088123;28;19923;-76
2022/08/27 00:07:26;;;;;;;;;;;14.10;62.20;;;;;;5088113;28;19913;-76
2022/08/27 00:09:52;;;;;;;;;;;14.10;62.20;;;;;;5088258;28;19995;-76
2022/08/27 00:12:17;;;;;;;;;;;14.10;62.10;;;;;;5088142;28;20424;-76
2022/08/27 00:14:43;;;;;;;;;;;14.00;62.00;;;;;;5086839;28;19942;-76
2022/08/27 00:17:09;;;;;;;;;;;14.00;62.10;;;;;;5088210;28;19909;-77
2022/08/27 00:19:35;;;;;;;;;;;14.00;62.10;;;;;;5070136;28;19965;-76
2022/08/27 00:22:01;;;;;;;;;;;14.00;62.10;;;;;;5086848;28;19908;-76
2022/08/27 00:24:27;;;;;;;;;;;13.90;62.60;;;;;;5088152;28;19916;-76
2022/08/27 00:26:52;;;;;;;;;;;13.90;62.10;;;;;;5086807;28;20444;-76
2022/08/27 00:29:19;;;;;;;;;;;13.90;62.10;;;;;;5087988;28;19924;-76
2022/08/27 00:31:44;;;;;;;;;;;13.90;62.10;;;;;;5087870;28;20272;-76
2022/08/27 00:34:10;;;;;;;;;;;13.90;62.10;;;;;;5086937;28;19919;-76
2022/08/27 00:36:36;;;;;;;;;;;13.90;62.10;;;;;;5086613;28;20283;-76
2022/08/27 00:39:02;;;;;;;;;;;13.80;62.00;;;;;;5088115;28;19917;-76
2022/08/27 00:41:27;;;;;;;;;;;13.80;62.10;;;;;;5087911;28;19963;-76
2022/08/27 00:43:57;;;;;;;;;;;13.80;62.10;;;;;;5088025;28;19959;-76
2022/08/27 00:46:28;;;;;;;;;;;13.80;62.00;;;;;;5088056;28;19917;-76
2022/08/27 00:48:59;;;;;;;;;;;13.70;62.00;;;;;;5086389;28;19908;-76
2022/08/27 00:51:26;;;;;;;;;;;13.70;62.20;;;;;;5087775;28;19904;-77
2022/08/27 00:53:52;;;;;;;;;;;13.60;62.10;;;;;;5088099;28;19954;-76
2022/08/27 00:56:20;;;;;;;;;;;13.60;62.10;;;;;;5088076;28;19908;-76
2022/08/27 00:58:47;;;;;;;;;;;13.60;62.10;;;;;;5087879;28;20360;-76
2022/08/27 01:01:14;;;;;;;;;;;13.50;62.10;;;;;;5087910;28;19920;-76
2022/08/27 01:03:41;;;;;;;;;;;13.50;62.10;;;;;;5087681;28;19912;-76
2022/08/27 01:06:09;;;;;;;;;;;13.50;62.10;;;;;;5088092;28;19916;-76
2022/08/27 01:08:36;;;;;;;;;;;13.40;62.10;;;;;;5086578;28;19920;-76
2022/08/27 01:11:03;;;;;;;;;;;13.30;62.10;;;;;;5087536;28;19954;-76
2022/08/27 01:13:30;;;;;;;;;;;13.30;62.20;;;;;;5086532;28;20326;-76
2022/08/27 01:15:57;;;;;;;;;;;13.20;62.20;;;;;;5086363;28;19908;-76
2022/08/27 01:18:33;;;;;;;;;;;13.20;62.20;;;;;;5087537;28;19912;-76
2022/08/27 01:21:17;;;;;;;;;;;13.10;62.20;;;;;;5086245;28;19908;-76
2022/08/27 01:24:03;;;;;;;;;;;13.10;62.30;;;;;;5087380;28;19920;-76
2022/08/27 01:26:29;;;;;;;;;;;13.10;62.30;;;;;;5055799;28;20387;-76
2022/08/27 01:28:55;;;;;;;;;;;13.10;62.30;;;;;;5087501;28;19915;-76
2022/08/27 01:31:21;;;;;;;;;;;13.10;62.20;;;;;;5089952;28;19912;-76
2022/08/27 01:33:54;;;;;;;;;;;13.10;62.20;;;;;;5089933;28;19919;-76
2022/08/27 01:36:19;;;;;;;;;;;13.10;62.20;;;;;;5089893;28;19925;-76
2022/08/27 01:38:45;;;;;;;;;;;13.10;62.20;;;;;;5089694;28;20494;-76
2022/08/27 01:41:11;;;;;;;;;;;13.10;62.20;;;;;;5089314;28;19950;-76
2022/08/27 01:43:37;;;;;;;;;;;13.10;62.20;;;;;;5089505;28;19922;-76
2022/08/27 01:46:03;;;;;;;;;;;13.10;62.20;;;;;;5089667;28;20287;-76
2022/08/27 01:48:28;;;;;;;;;;;13.10;62.20;;;;;;5090901;28;19919;-76
2022/08/27 01:50:54;;;;;;;;;;;13.10;62.20;;;;;;5090777;28;19912;-76
2022/08/27 01:53:21;;;;;;;;;;;13.10;62.10;;;;;;5089405;28;20018;-76
2022/08/27 01:55:48;;;;;;;;;;;12.90;62.10;;;;;;5091019;28;20263;-76
2022/08/27 01:58:14;;;;;;;;;;;12.90;62.30;;;;;;5088908;28;20006;-76
2022/08/27 02:00:41;;;;;;;;;;;12.90;62.40;;;;;;5090702;28;19908;-76
2022/08/27 02:03:08;;;;;;;;;;;12.90;62.30;;;;;;5090461;28;19912;-76
2022/08/27 02:05:34;;;;;;;;;;;12.90;62.30;;;;;;5089056;28;19908;-76
2022/08/27 02:08:00;;;;;;;;;;;13.00;62.30;;;;;;5090231;28;20360;-76
2022/08/27 02:10:28;;;;;;;;;;;13.00;62.20;;;;;;5088956;28;19919;-76
2022/08/27 02:12:54;;;;;;;;;;;13.10;62.10;;;;;;5090485;28;20007;-76
2022/08/27 02:15:19;;;;;;;;;;;13.20;62.00;;;;;;5090253;28;20006;-76
2022/08/27 02:17:45;;;;;;;;;;;13.30;62.00;;;;;;5089120;28;19909;-76
2022/08/27 02:20:12;;;;;;;;;;;13.30;61.90;;;;;;5090224;28;19912;-76
2022/08/27 02:22:38;;;;;;;;;;;13.40;61.90;;;;;;5090701;28;19947;-77
2022/08/27 02:25:05;;;;;;;;;;;13.30;61.90;;;;;;5090149;28;20024;-76
2022/08/27 02:27:31;;;;;;;;;;;13.30;62.00;;;;;;5088751;28;20395;-76
2022/08/27 02:29:57;;;;;;;;;;;13.30;62.10;;;;;;5089965;28;19908;-76
2022/08/27 02:32:22;;;;;;;;;;;13.20;62.60;;;;;;5090026;28;19920;-76
2022/08/27 02:34:48;;;;;;;;;;;13.20;62.00;;;;;;5071857;28;19927;-76
2022/08/27 02:37:14;;;;;;;;;;;13.20;62.00;;;;;;5089863;28;19912;-76
2022/08/27 02:39:40;;;;;;;;;;;13.20;62.10;;;;;;5089962;28;19913;-76
2022/08/27 02:42:06;;;;;;;;;;;13.20;62.10;;;;;;5088786;28;20338;-76
2022/08/27 02:44:34;;;;;;;;;;;13.20;62.10;;;;;;5088435;28;19916;-76
2022/08/27 02:47:01;;;;;;;;;;;13.20;62.20;;;;;;5089915;28;19915;-76
2022/08/27 02:49:27;;;;;;;;;;;13.20;62.30;;;;;;5088208;28;19916;-76
2022/08/27 02:51:53;;;;;;;;;;;13.20;62.20;;;;;;5089764;28;19915;-76
2022/08/27 02:54:19;;;;;;;;;;;13.20;62.20;;;;;;5089616;28;19921;-76
2022/08/27 02:56:44;;;;;;;;;;;13.20;62.20;;;;;;5089590;28;19930;-76
2022/08/27 02:59:10;;;;;;;;;;;13.10;62.20;;;;;;5089334;28;20110;-76
2022/08/27 03:01:35;;;;;;;;;;;13.10;62.20;;;;;;5088347;28;19912;-76
2022/08/27 03:04:01;;;;;;;;;;;13.20;62.30;;;;;;5088009;28;20321;-76
2022/08/27 03:06:27;;;;;;;;;;;13.10;62.20;;;;;;5087977;28;19945;-76
2022/08/27 03:08:52;;;;;;;;;;;13.20;62.30;;;;;;5087837;28;19999;-76
2022/08/27 03:11:18;;;;;;;;;;;13.20;62.10;;;;;;5089292;28;19916;-76
2022/08/27 03:13:43;;;;;;;;;;;13.20;61.90;;;;;;5087869;28;19912;-73
2022/08/27 03:16:09;;;;;;;;;;;13.20;61.80;;;;;;5089047;28;19912;-76
2022/08/27 03:18:35;;;;;;;;;;;13.20;61.80;;;;;;5089528;28;20007;-76
2022/08/27 03:21:01;;;;;;;;;;;13.10;61.80;;;;;;5071115;28;19947;-76
2022/08/27 03:23:28;;;;;;;;;;;13.00;61.70;;;;;;5089026;28;19916;-76
2022/08/27 03:25:56;;;;;;;;;;;13.00;61.80;;;;;;5088997;28;19908;-77
2022/08/27 03:28:24;;;;;;;;;;;13.00;61.90;;;;;;5089091;28;20374;-76
2022/08/27 03:30:51;;;;;;;;;;;13.00;61.90;;;;;;5087651;28;19914;-76
2022/08/27 03:33:18;;;;;;;;;;;13.00;61.90;;;;;;5088958;28;19911;-76
2022/08/27 03:35:44;;;;;;;;;;;13.00;61.90;;;;;;5087643;28;19995;-76
2022/08/27 03:38:10;;;;;;;;;;;13.00;61.90;;;;;;5088801;28;19912;-76
2022/08/27 03:40:36;;;;;;;;;;;12.90;61.80;;;;;;5088452;28;20328;-76
2022/08/27 03:43:02;;;;;;;;;;;12.80;61.90;;;;;;5089063;28;20319;-76
2022/08/27 03:45:28;;;;;;;;;;;12.80;62.20;;;;;;5088699;28;19958;-76
2022/08/27 03:47:53;;;;;;;;;;;12.70;62.30;;;;;;5070445;28;19962;-76
2022/08/27 03:50:19;;;;;;;;;;;12.80;62.40;;;;;;5088506;28;19975;-76
2022/08/27 03:52:44;;;;;;;;;;;12.80;62.40;;;;;;5086926;28;19917;-76
2022/08/27 03:55:10;;;;;;;;;;;12.90;62.40;;;;;;5088557;28;19985;-76
2022/08/27 03:57:35;;;;;;;;;;;12.90;62.30;;;;;;5087291;28;19912;-76
2022/08/27 04:00:01;;;;;;;;;;;12.90;62.40;;;;;;5087283;28;19908;-76
2022/08/27 04:02:27;;;;;;;;;;;13.00;62.40;;;;;;5088447;28;19919;-76
2022/08/27 04:04:52;;;;;;;;;;;13.00;62.40;;;;;;5086713;28;19920;-76
2022/08/27 04:07:18;;;;;;;;;;;13.00;62.40;;;;;;5087984;28;19930;-76
2022/08/27 04:09:44;;;;;;;;;;;13.10;62.40;;;;;;5088253;28;19908;-76
2022/08/27 04:12:10;;;;;;;;;;;13.20;62.50;;;;;;5088333;28;20002;-76
2022/08/27 04:14:36;;;;;;;;;;;13.20;62.30;;;;;;5088202;28;20360;-76
2022/08/27 04:17:01;;;;;;;;;;;13.30;62.30;;;;;;5088155;28;19919;-76
2022/08/27 04:19:29;;;;;;;;;;;13.40;62.20;;;;;;5086676;28;19912;-76
2022/08/27 04:21:59;;;;;;;;;;;13.40;62.20;;;;;;5088324;28;19912;-76
2022/08/27 04:24:24;;;;;;;;;;;13.40;62.30;;;;;;5086849;28;19912;-76
2022/08/27 04:26:50;;;;;;;;;;;13.40;62.30;;;;;;5086795;28;20471;-76
2022/08/27 04:29:15;;;;;;;;;;;13.40;62.40;;;;;;5087983;28;19929;-76
2022/08/27 04:31:41;;;;;;;;;;;13.50;62.40;;;;;;5088038;28;19935;-76
2022/08/27 04:34:07;;;;;;;;;;;13.50;62.30;;;;;;5086753;28;19912;-76
2022/08/27 04:36:32;;;;;;;;;;;13.50;62.30;;;;;;5088110;28;19912;-77
2022/08/27 04:38:58;;;;;;;;;;;13.60;62.40;;;;;;5088166;28;19932;-77
2022/08/27 04:41:26;;;;;;;;;;;13.60;62.40;;;;;;5086552;28;20299;-76
2022/08/27 04:43:53;;;;;;;;;;;13.70;62.20;;;;;;5086532;28;19916;-76
2022/08/27 04:46:22;;;;;;;;;;;13.80;62.10;;;;;;5087850;28;20015;-77
2022/08/27 04:48:48;;;;;;;;;;;13.80;61.90;;;;;;5087905;28;20516;-77
2022/08/27 04:51:13;;;;;;;;;;;13.80;61.80;;;;;;5088374;28;19958;-76
2022/08/27 04:53:39;;;;;;;;;;;13.80;61.80;;;;;;5086541;28;20355;-76
2022/08/27 04:56:04;;;;;;;;;;;13.80;61.80;;;;;;5087795;28;19953;-76
2022/08/27 04:58:30;;;;;;;;;;;13.70;61.80;;;;;;5069672;28;19967;-76
2022/08/27 05:01:00;;;;;;;;;;;13.80;61.90;;;;;;5087698;28;19915;-76
2022/08/27 05:03:27;;;;;;;;;;;13.80;62.00;;;;;;5086548;28;20291;-76
2022/08/27 05:05:57;;;;;;;;;;;13.80;62.00;;;;;;5089616;28;20275;-76
2022/08/27 05:08:22;;;;;;;;;;;13.80;62.00;;;;;;5091741;28;19922;-76
2022/08/27 05:10:49;;;;;;;;;;;13.70;62.00;;;;;;5091621;28;19916;-76
2022/08/27 05:13:17;;;;;;;;;;;13.80;62.10;;;;;;5091620;28;19908;-76
2022/08/27 05:15:43;;;;;;;;;;;13.80;62.10;;;;;;5091534;28;20439;-76
2022/08/27 05:18:08;;;;;;;;;;;13.80;62.10;;;;;;5091593;28;19994;-76
2022/08/27 05:20:39;;;;;;;;;;;13.80;62.00;;;;;;5091410;28;19996;-76
2022/08/27 05:23:05;;;;;;;;;;;13.80;62.10;;;;;;5091524;28;19920;-77
2022/08/27 05:25:31;;;;;;;;;;;13.80;62.60;;;;;;5091270;28;19920;-76
2022/08/27 05:27:56;;;;;;;;;;;13.80;62.10;;;;;;5091383;28;20007;-76
2022/08/27 05:30:22;;;;;;;;;;;13.80;62.20;;;;;;5089730;28;20292;-76
2022/08/27 05:32:48;;;;;;;;;;;13.80;62.10;;;;;;5072866;28;19946;-76
2022/08/27 05:35:13;;;;;;;;;;;13.80;62.10;;;;;;5089631;28;19919;-76
2022/08/27 05:37:39;;;;;;;;;;;13.70;62.10;;;;;;5089883;28;19916;-76
2022/08/27 05:40:05;;;;;;;;;;;13.70;62.10;;;;;;5089743;28;19920;-76
2022/08/27 05:42:31;;;;;;;;;;;13.60;62.20;;;;;;5090820;28;19931;-76
2022/08/27 05:44:57;;;;;;;;;;;13.60;62.20;;;;;;5090956;28;19932;-76
2022/08/27 05:47:22;;;;;;;;;;;13.70;62.30;;;;;;5090834;28;20260;-76
2022/08/27 05:49:52;;;;;;;;;;;13.70;62.20;;;;;;5089616;28;19947;-76
2022/08/27 05:52:18;;;;;;;;;;;13.70;62.60;;;;;;5090874;28;19908;-76
2022/08/27 05:54:43;;;;;;;;;;;13.70;62.00;;;;;;5089437;28;19923;-76
2022/08/27 05:57:09;;;;;;;;;;;13.70;62.00;;;;;;5089503;28;19916;-76
2022/08/27 06:02:19;;;;;;;;;;;13.80;62.10;;;;;;5091001;28;19965;-76
2022/08/27 06:04:45;;;;;;;;;;;13.90;62.10;;;;;;5090537;28;19912;-76
2022/08/27 06:07:11;;;;;;;;;;;13.90;62.10;;;;;;5090502;28;20298;-76
2022/08/27 06:09:37;;;;;;;;;;;14.00;62.10;;;;;;5089233;28;19912;-76
2022/08/27 06:12:03;;;;;;;;;;;14.00;62.00;;;;;;5089292;28;19964;-76
2022/08/27 06:14:29;;;;;;;;;;;14.10;61.90;;;;;;5089050;28;19912;-77
2022/08/27 06:16:55;;;;;;;;;;;14.10;61.90;;;;;;5090284;28;20370;-76
2022/08/27 06:19:20;;;;;;;;;;;14.20;61.80;;;;;;5090115;28;19908;-76
2022/08/27 06:21:46;;;;;;;;;;;14.30;61.90;;;;;;5088782;28;19912;-76
2022/08/27 06:24:12;;;;;;;;;;;14.30;61.90;;;;;;5088484;28;20356;-76
2022/08/27 06:26:38;;;;;;;;;;;14.40;61.80;;;;;;5089969;28;19908;-77
2022/08/27 06:29:04;;;;;;;;;;;14.50;61.80;;;;;;5089857;28;19955;-77
2022/08/27 06:31:31;;;;;;;;;;;14.50;61.80;;;;;;5088187;28;19935;-76
2022/08/27 06:33:58;;;;;;;;;;;14.60;61.80;;;;;;5089888;28;19963;-77
2022/08/27 06:36:24;;;;;;;;;;;14.60;61.90;;;;;;5089931;28;19916;-77
2022/08/27 06:38:50;;;;;;;;;;;14.70;61.90;;;;;;5089773;28;19947;-77
2022/08/27 06:41:17;;;;;;;;;;;14.80;61.90;;;;;;5071295;28;19970;-77
2022/08/27 06:43:43;;;;;;;;;;;14.80;62.00;;;;;;5088399;28;20291;-77
2022/08/27 06:46:10;;;;;;;;;;;14.80;61.90;;;;;;5089977;28;19912;-77
2022/08/27 06:48:37;;;;;;;;;;;14.90;62.00;;;;;;5088461;28;19909;-76
2022/08/27 06:51:07;;;;;;;;;;;14.90;61.90;;;;;;5088150;28;20378;-77
2022/08/27 06:53:32;;;;;;;;;;;14.90;61.80;;;;;;5088346;28;19966;-76
2022/08/27 06:55:58;;;;;;;;;;;14.90;61.90;;;;;;5088304;28;20542;-76
2022/08/27 06:58:23;;;;;;;;;;;14.90;61.80;;;;;;5088083;28;19912;-76
2022/08/27 07:00:50;;;;;;;;;;;14.90;61.80;;;;;;5089395;28;19958;-76
2022/08/27 07:03:15;;;;;;;;;;;14.90;61.80;;;;;;5089208;28;19965;-76
2022/08/27 07:05:41;;;;;;;;;;;14.90;61.80;;;;;;5088081;28;19908;-76
2022/08/27 07:08:07;;;;;;;;;;;15.00;62.00;;;;;;5088180;28;19919;-76
2022/08/27 07:10:33;;;;;;;;;;;15.10;62.20;;;;;;5087997;28;20437;-76
2022/08/27 07:12:59;;;;;;;;;;;15.40;63.00;;;;;;5089088;28;19924;-76
2022/08/27 07:15:25;;;;;;;;;;;15.70;62.20;;;;;;5087886;28;19920;-76
2022/08/27 07:17:51;;;;;;;;;;;15.90;61.90;;;;;;5089149;28;20013;-76
2022/08/27 07:20:18;;;;;;;;;;;16.00;61.80;;;;;;5088970;28;20360;-76
2022/08/27 07:22:44;;;;;;;;;;;16.10;61.80;;;;;;5087527;28;19913;-76
2022/08/27 07:25:11;;;;;;;;;;;16.30;62.10;;;;;;5087529;28;19928;-76
2022/08/27 07:27:38;;;;;;;;;;;16.60;61.90;;;;;;5086722;28;19916;-76
2022/08/27 07:30:04;;;;;;;;;;;16.70;61.90;;;;;;5087247;28;19916;-77
2022/08/27 07:32:30;;;;;;;;;;;17.10;62.50;;;;;;5088541;28;19909;-77
2022/08/27 07:34:56;;;;;;;;;;;17.80;62.90;;;;;;5088287;28;19915;-77
2022/08/27 07:37:21;;;;;;;;;;;18.60;61.50;;;;;;5088572;28;19962;-76
2022/08/27 07:39:47;;;;;;;;;;;18.90;60.80;;;;;;5088453;28;19916;-77
2022/08/27 07:44:57;;;;;;;;;;;19.80;61.30;;;;;;5088437;28;19918;-77
2022/08/27 07:47:23;;;;;;;;;;;20.70;61.10;;;;;;5086833;28;20307;-77
2022/08/27 07:49:49;;;;;;;;;;;21.50;61.40;;;;;;5086730;28;19912;-77
2022/08/27 07:52:15;;;;;;;;;;;22.30;61.20;;;;;;5087877;28;20420;-77
2022/08/27 07:54:40;;;;;;;;;;;23.30;61.30;;;;;;5088066;28;19914;-77
2022/08/27 07:57:07;;;;;;;;;;;24.50;61.10;;;;;;5088043;28;20372;-78
2022/08/27 07:59:33;;;;;;;;;;;25.60;60.70;;;;;;5085976;28;20275;-78
2022/08/27 08:01:59;;;;;;;;;;;26.50;60.90;;;;;;5088148;28;19919;-78
2022/08/27 08:04:25;;;;;;;;;;;27.30;60.90;;;;;;5086811;28;19917;-78
2022/08/27 08:06:51;;;;;;;;;;;28.10;60.80;;;;;;5087825;28;20328;-76
2022/08/27 08:09:17;;;;;;;;;;;28.80;60.70;;;;;;5087924;28;20291;-76
2022/08/27 08:11:43;;;;;;;;;;;29.40;60.60;;;;;;5086430;28;19956;-76
2022/08/27 08:14:09;;;;;;;;;;;29.90;60.40;;;;;;5087817;28;19957;-76
2022/08/27 08:16:35;;;;;;;;;;;30.30;60.40;;;;;;5087104;28;20006;-76
2022/08/27 08:19:00;;;;;;;;;;;30.60;60.50;;;;;;5087399;28;19916;-76
2022/08/27 08:21:26;;;;;;;;;;;30.90;60.60;;;;;;5087621;28;19919;-76
2022/08/27 08:23:52;;;;;;;;;;;31.30;60.70;;;;;;5087278;28;19959;-76
2022/08/27 08:26:18;;;;;;;;;;;31.70;60.90;;;;;;5087653;28;20264;-78
2022/08/27 08:28:44;;;;;;;;;;;32.00;61.10;;;;;;5087103;28;19912;-76
2022/08/27 08:31:10;;;;;;;;;;;32.20;61.40;;;;;;5087432;28;20394;-76
2022/08/27 08:33:35;;;;;;;;;;;32.30;61.60;;;;;;5087582;28;19912;-76
2022/08/27 08:36:05;;;;;;;;;;;32.40;61.70;;;;;;5087523;28;19913;-76
2022/08/27 08:38:31;;;;;;;;;;;32.30;62.00;;;;;;5087391;28;19912;-76
2022/08/27 08:40:56;;;;;;;;;;;32.20;62.20;;;;;;5089250;28;20395;-76
2022/08/27 08:43:25;;;;;;;;;;;32.20;62.40;;;;;;5089988;28;19923;-76
2022/08/27 08:45:51;;;;;;;;;;;32.30;62.30;;;;;;5091644;28;19908;-76
2022/08/27 08:48:19;;;;;;;;;;;32.40;62.10;;;;;;5089968;28;19926;-76
2022/08/27 08:50:57;;;;;;;;;;;32.40;62.10;;;;;;5091390;28;19908;-76
2022/08/27 08:53:32;;;;;;;;;;;32.20;62.40;;;;;;5091232;28;19916;-76
2022/08/27 08:56:00;;;;;;;;;;;32.10;62.90;;;;;;5092016;28;20321;-76
2022/08/27 08:58:44;;;;;;;;;;;32.30;62.80;;;;;;5090668;28;20379;-76
2022/08/27 09:01:10;;;;;;;;;;;32.60;62.60;;;;;;5091516;28;19999;-77
2022/08/27 09:03:39;;;;;;;;;;;32.50;62.60;;;;;;5087130;28;19967;-77
2022/08/27 09:06:07;;;;;;;;;;;32.20;63.20;;;;;;5084273;28;20009;-76
2022/08/27 09:08:35;;;;;;;;;;;32.10;63.80;;;;;;5088680;28;20257;-74
2022/08/27 09:11:07;;;;;;;;;;;32.00;64.00;;;;;;5079592;28;21285;-73
2022/08/27 09:13:36;;;;;;;;;;;32.10;64.00;;;;;;5081618;28;19920;-73
2022/08/27 09:16:02;;;;;;;;;;;32.20;63.80;;;;;;5091956;28;20312;-73
2022/08/27 09:18:28;;;;;;;;;;;32.30;64.10;;;;;;5091419;28;19912;-74
2022/08/27 09:20:58;;;;;;;;;;;32.60;64.10;;;;;;5077306;28;19962;-74
2022/08/27 09:23:34;;;;;;;;;;;32.90;64.00;;;;;;5077134;28;19999;-74
2022/08/27 09:25:59;;;;;;;;;;;33.30;63.90;;;;;;5085175;28;20347;-74
2022/08/27 09:31:12;;;;;;;;;;;33.70;64.20;;;;;;5090924;28;19919;-74
2022/08/27 09:33:38;;;;;;;;;;;34.30;64.30;;;;;;5089183;28;19916;-74
2022/08/27 09:36:06;;;;;;;;;;;34.90;64.00;;;;;;5085536;28;19920;-75
2022/08/27 09:38:33;;;;;;;;;;;35.20;64.10;;;;;;5080473;28;19959;-74
2022/08/27 09:41:06;;;;;;;;;;;35.60;63.70;;;;;;5080719;28;19924;-74
2022/08/27 09:43:32;;;;;;;;;;;35.90;63.30;;;;;;5078732;28;19913;-75
2022/08/27 09:45:59;;;;;;;;;;;36.10;62.90;;;;;;5079311;28;19920;-76
2022/08/27 09:48:26;;;;;;;;;;;35.80;63.10;;;;;;5077943;28;19961;-79
2022/08/27 09:50:54;;;;;;;;;;;35.60;63.80;;;;;;5088885;28;19908;-82
2022/08/27 09:53:28;;;;;;;;;;;35.80;64.20;;;;;;5092056;28;19919;-78
2022/08/27 09:55:58;;;;;;;;;;;36.10;63.80;;;;;;5091560;28;19908;-77
2022/08/27 09:58:29;;;;;;;;;;;36.40;63.50;;;;;;5092126;28;19908;-77
2022/08/27 10:01:18;;;;;;;;;;;36.60;63.20;;;;;;5090702;28;20291;-79
2022/08/27 10:03:44;;;;;;;;;;;36.80;62.90;;;;;;5083160;28;19912;-80
2022/08/27 10:06:10;;;;;;;;;;;36.60;62.50;;;;;;5090134;28;19915;-78
2022/08/27 10:08:51;;;;;;;;;;;36.40;62.60;;;;;;5091350;28;20356;-77
2022/08/27 10:11:22;;;;;;;;;;;36.30;62.80;;;;;;5091469;28;19915;-77
2022/08/27 10:13:47;;;;;;;;;;;36.40;63.20;;;;;;5093562;28;20392;-81
2022/08/27 10:16:13;;;;;;;;;;;36.80;63.50;;;;;;5091589;28;19954;-80
2022/08/27 10:18:55;;;;;;;;;;;37.10;63.50;;;;;;5091259;28;19916;-76
2022/08/27 10:21:29;;;;;;;;;;;37.10;63.10;;;;;;5091866;28;19915;-75
2022/08/27 10:24:13;;;;;;;;;;;36.60;62.70;;;;;;5092018;28;19918;-81
2022/08/27 10:26:59;;;;;;;;;;;36.00;63.20;;;;;;5091641;28;19912;-82
2022/08/27 10:29:35;;;;;;;;;;;35.30;63.90;;;;;;5081542;28;19912;-78
2022/08/27 10:32:04;;;;;;;;;;;34.80;64.70;;;;;;5091158;28;19908;-76
2022/08/27 10:34:29;;;;;;;;;;;34.60;65.40;;;;;;5090566;28;19927;-74
2022/08/27 10:37:08;;;;;;;;;;;34.70;65.90;;;;;;5090163;28;20271;-77
2022/08/27 10:39:37;;;;;;;;;;;35.00;65.90;;;;;;5088150;28;19978;-74
2022/08/27 10:42:11;;;;;;;;;;;35.10;66.20;;;;;;5089403;28;19935;-76
2022/08/27 10:44:52;;;;;;;;;;;35.70;66.00;;;;;;5088705;28;19935;-80
2022/08/27 10:47:35;;;;;;;;;;;36.30;65.80;;;;;;5090519;28;19994;-76
2022/08/27 10:50:04;;;;;;;;;;;36.60;64.80;;;;;;5090083;28;19958;-77
2022/08/27 10:52:38;;;;;;;;;;;36.50;64.80;;;;;;5090798;28;19943;-77
2022/08/27 10:55:23;;;;;;;;;;;36.70;64.90;;;;;;5089456;28;19919;-79
2022/08/27 10:57:54;;;;;;;;;;;37.00;64.60;;;;;;5089874;28;19947;-79
2022/08/27 11:00:21;;;;;;;;;;;37.10;64.30;;;;;;5088615;28;20336;-78
2022/08/27 11:02:53;;;;;;;;;;;37.00;64.90;;;;;;5089023;28;20368;-78
2022/08/27 11:05:22;;;;;;;;;;;37.20;65.00;;;;;;5089995;28;20315;-78
2022/08/27 11:08:14;;;;;;;;;;;37.60;64.90;;;;;;5089858;28;19989;-78
2022/08/27 11:10:42;;;;;;;;;;;37.90;64.60;;;;;;5062362;28;19916;-77
2022/08/27 11:13:28;;;;;;;;;;;38.10;64.10;;;;;;5078750;28;19913;-78
2022/08/27 11:15:55;;;;;;;;;;;37.70;63.80;;;;;;5079140;28;19908;-77
2022/08/27 11:18:59;;;;;;;;;;;37.10;64.10;;;;;;5089080;28;19924;-77
2022/08/27 11:21:36;;;;;;;;;;;36.50;63.80;;;;;;5033330;28;20411;-77
2022/08/27 11:24:20;;;;;;;;;;;35.90;63.90;;;;;;5030516;28;20242;-78
2022/08/27 11:26:49;;;;;;;;;;;35.40;64.20;;;;;;5074847;28;19934;-76
2022/08/27 11:29:18;;;;;;;;;;;35.00;64.80;;;;;;5088004;28;19916;-75
2022/08/27 11:31:49;;;;;;;;;;;35.10;65.50;;;;;;5089064;28;19916;-77
2022/08/27 11:34:33;;;;;;;;;;;35.20;65.60;;;;;;5088454;28;19977;-76
2022/08/27 11:37:17;;;;;;;;;;;35.50;65.60;;;;;;5087185;28;19977;-76
2022/08/27 11:39:50;;;;;;;;;;;35.90;65.20;;;;;;5088551;28;19947;-75
2022/08/27 11:42:15;;;;;;;;;;;36.20;65.00;;;;;;5089678;28;19935;-81
2022/08/27 11:44:42;;;;;;;;;;;36.50;64.40;;;;;;5089983;28;19912;-82
2022/08/27 11:47:23;;;;;;;;;;;36.70;64.20;;;;;;5089253;28;20485;-78
2022/08/27 11:49:59;;;;;;;;;;;36.90;64.40;;;;;;5088858;28;19908;-78
2022/08/27 11:52:31;;;;;;;;;;;37.00;64.80;;;;;;5087722;28;19995;-79
2022/08/27 11:55:09;;;;;;;;;;;37.10;64.60;;;;;;5088565;28;19908;-75
2022/08/27 11:57:35;;;;;;;;;;;37.10;64.60;;;;;;5088870;28;19912;-79
2022/08/27 12:00:13;;;;;;;;;;;37.00;64.30;;;;;;5089359;28;19908;-78
2022/08/27 12:02:39;;;;;;;;;;;36.90;64.50;;;;;;5087096;28;19918;-80
2022/08/27 12:05:09;;;;;;;;;;;37.10;64.50;;;;;;5088783;28;19964;-76
2022/08/27 12:07:39;;;;;;;;;;;37.00;64.10;;;;;;5089021;28;19908;-77
2022/08/27 12:10:16;;;;;;;;;;;36.70;64.40;;;;;;5089596;28;19920;-80
2022/08/27 12:13:01;;;;;;;;;;;36.50;64.70;;;;;;5089316;28;20263;-80
2022/08/27 12:15:45;;;;;;;;;;;36.40;64.60;;;;;;5058023;28;20524;-77
2022/08/27 12:18:14;;;;;;;;;;;36.10;64.20;;;;;;5088081;28;20355;-80
2022/08/27 12:20:55;;;;;;;;;;;35.40;64.40;;;;;;5089735;28;19970;-76
2022/08/27 12:23:38;;;;;;;;;;;35.00;64.30;;;;;;5090942;28;19972;-80
2022/08/27 12:26:26;;;;;;;;;;;34.60;64.40;;;;;;5087952;28;19912;-80
2022/08/27 12:29:15;;;;;;;;;;;34.10;64.50;;;;;;5073542;28;19962;-79
2022/08/27 12:31:43;;;;;;;;;;;33.80;65.00;;;;;;5088598;28;19908;-81
2022/08/27 12:34:17;;;;;;;;;;;33.90;64.90;;;;;;5088815;28;19908;-71
2022/08/27 12:36:43;;;;;;;;;;;34.00;65.00;;;;;;5077325;28;19913;-80
2022/08/27 12:39:13;;;;;;;;;;;34.10;65.30;;;;;;5071139;28;19909;-80
2022/08/27 12:41:43;;;;;;;;;;;34.40;65.60;;;;;;5072198;28;19920;-78
2022/08/27 12:44:11;;;;;;;;;;;34.90;65.50;;;;;;5071312;28;20049;-79
2022/08/27 12:46:45;;;;;;;;;;;35.20;65.00;;;;;;5069169;28;19916;-78
2022/08/27 12:49:11;;;;;;;;;;;35.20;64.60;;;;;;5070462;28;19995;-80
2022/08/27 12:51:36;;;;;;;;;;;34.70;63.70;;;;;;5069187;28;19973;-78
2022/08/27 12:54:17;;;;;;;;;;;34.00;63.80;;;;;;5068149;28;19913;-78
2022/08/27 12:56:47;;;;;;;;;;;33.60;64.50;;;;;;5067816;28;19913;-75
2022/08/27 12:59:23;;;;;;;;;;;33.50;64.80;;;;;;5067039;28;19955;-76
2022/08/27 13:01:55;;;;;;;;;;;33.40;64.80;;;;;;5069577;28;20037;-77
2022/08/27 13:04:23;;;;;;;;;;;33.20;64.50;;;;;;5081877;28;19911;-78
2022/08/27 13:06:49;;;;;;;;;;;33.00;64.60;;;;;;5088692;28;19921;-75
2022/08/27 13:09:14;;;;;;;;;;;32.70;64.80;;;;;;5088833;28;20437;-78
2022/08/27 13:11:47;;;;;;;;;;;32.50;65.10;;;;;;5087419;28;19912;-76
2022/08/27 13:14:18;;;;;;;;;;;32.40;65.10;;;;;;5088241;28;20313;-77
2022/08/27 13:17:16;;;;;;;;;;;32.20;65.00;;;;;;5089052;28;19908;-78
2022/08/27 13:19:47;;;;;;;;;;;31.90;65.20;;;;;;5065569;28;19908;-79
2022/08/27 13:22:19;;;;;;;;;;;31.90;65.30;;;;;;5085759;28;19919;-76
2022/08/27 13:24:47;;;;;;;;;;;31.90;65.20;;;;;;5083048;28;20283;-80
2022/08/27 13:27:12;;;;;;;;;;;31.90;65.00;;;;;;5089016;28;20342;-78
2022/08/27 13:29:38;;;;;;;;;;;31.60;64.60;;;;;;5090599;28;19987;-77
2022/08/27 13:32:07;;;;;;;;;;;31.40;64.60;;;;;;5090319;28;19923;-78
2022/08/27 13:34:36;;;;;;;;;;;31.20;64.30;;;;;;5090261;28;19915;-78
2022/08/27 13:37:19;;;;;;;;;;;31.00;64.20;;;;;;5090560;28;19908;-78
2022/08/27 13:39:44;;;;;;;;;;;30.80;64.00;;;;;;5089997;28;20030;-78
2022/08/27 13:42:10;;;;;;;;;;;30.70;63.60;;;;;;5090809;28;19924;-78
2022/08/27 13:44:38;;;;;;;;;;;30.30;63.80;;;;;;5073352;28;20573;-77
2022/08/27 13:47:06;;;;;;;;;;;30.00;63.60;;;;;;5089994;28;19952;-78
2022/08/27 13:49:33;;;;;;;;;;;29.60;63.50;;;;;;5092080;28;19912;-78
2022/08/27 13:52:22;;;;;;;;;;;29.20;63.70;;;;;;5091435;28;19912;-78
2022/08/27 13:54:49;;;;;;;;;;;28.90;64.10;;;;;;5090851;28;19915;-79
2022/08/27 13:57:26;;;;;;;;;;;29.00;64.00;;;;;;5093171;28;19915;-78
2022/08/27 13:59:51;;;;;;;;;;;28.90;63.40;;;;;;5071555;28;19912;-78
2022/08/27 14:02:18;;;;;;;;;;;28.70;63.70;;;;;;5071325;28;19913;-79
2022/08/27 14:04:48;;;;;;;;;;;28.70;63.40;;;;;;5071380;28;19916;-76
2022/08/27 14:07:14;;;;;;;;;;;28.60;63.20;;;;;;5069836;28;19909;-76
2022/08/27 14:09:41;;;;;;;;;;;28.40;63.10;;;;;;5071539;28;19953;-78
2022/08/27 14:12:09;;;;;;;;;;;28.10;63.10;;;;;;5070530;28;20300;-81
2022/08/27 14:14:36;;;;;;;;;;;27.90;63.40;;;;;;5069604;28;19909;-76
2022/08/27 14:17:07;;;;;;;;;;;27.90;63.30;;;;;;5071090;28;20285;-78
2022/08/27 14:19:33;;;;;;;;;;;27.80;63.20;;;;;;5071037;28;19912;-76
2022/08/27 14:21:59;;;;;;;;;;;27.70;63.30;;;;;;5071055;28;20612;-74
2022/08/27 14:24:26;;;;;;;;;;;27.70;63.00;;;;;;5070632;28;20011;-80
2022/08/27 14:26:53;;;;;;;;;;;27.50;62.80;;;;;;5071165;28;19935;-79
2022/08/27 14:29:20;;;;;;;;;;;27.30;63.10;;;;;;5071353;28;19952;-76
2022/08/27 14:31:45;;;;;;;;;;;27.30;63.30;;;;;;5070356;28;19912;-79